Time;durP1;ratioP1;P1;durP2;ratioP2;P2;SDS_P1;SDS_P2;PMS_P1;PMS_P2;Temp;Humidity;BMP_temperature;BMP_pressure;BME280_temperature;BME280_humidity;BME280_pressure;Samples;Min_cycle;Max_cycle;Signal;HPM_P1;HPM_P2
2023/04/26 00:00:54;;;;;;;14.70;2.50;;;;;;;4.60;68.91;99899.64;107777;1269;22576;-57
2023/04/26 00:03:25;;;;;;;16.60;2.50;;;;;;;4.59;69.08;99895.08;106336;1276;24397;-55
2023/04/26 00:05:56;;;;;;;17.20;2.50;;;;;;;4.58;69.07;99897.86;110412;1265;22292;-57
2023/04/26 00:08:27;;;;;;;11.90;1.70;;;;;;;4.56;69.10;99896.43;110408;1270;22992;-57
2023/04/26 00:10:58;;;;;;;13.00;2.40;;;;;;;4.55;69.16;99900.08;110421;1269;22322;-59
2023/04/26 00:13:29;;;;;;;21.50;2.80;;;;;;;4.54;69.19;99900.22;110437;1270;22203;-58
2023/04/26 00:16:00;;;;;;;13.70;2.00;;;;;;;4.53;69.21;99902.86;110431;1262;22238;-58
2023/04/26 00:18:31;;;;;;;14.70;1.90;;;;;;;4.53;69.19;99901.14;110404;1276;22383;-57
2023/04/26 00:21:02;;;;;;;9.30;1.60;;;;;;;4.54;69.09;99905.27;110407;1263;22181;-57
2023/04/26 00:23:35;;;;;;;12.20;2.10;;;;;;;4.55;69.14;99904.44;110443;1265;22284;-59
2023/04/26 00:26:06;;;;;;;12.80;2.00;;;;;;;4.55;69.18;99902.94;110433;1265;22242;-57
2023/04/26 00:28:38;;;;;;;7.90;1.70;;;;;;;4.54;69.12;99904.31;110422;1269;22176;-57
2023/04/26 00:31:13;;;;;;;10.40;2.30;;;;;;;4.54;69.05;99905.90;110419;1269;22206;-58
2023/04/26 00:33:44;;;;;;;11.60;1.80;;;;;;;4.52;69.15;99912.93;110444;1269;22194;-58
2023/04/26 00:36:18;;;;;;;13.50;2.50;;;;;;;4.52;69.15;99910.63;110349;1274;23084;-58
2023/04/26 00:38:49;;;;;;;11.90;1.60;;;;;;;4.52;69.12;99907.77;110420;1270;22139;-58
2023/04/26 00:41:20;;;;;;;15.00;1.90;;;;;;;4.52;69.11;99912.28;110418;1272;22925;-59
2023/04/26 00:43:51;;;;;;;10.80;2.00;;;;;;;4.52;69.11;99914.35;110335;1265;23098;-57
2023/04/26 00:46:22;;;;;;;14.60;1.90;;;;;;;4.51;69.07;99916.56;110406;1265;22210;-58
2023/04/26 00:48:53;;;;;;;13.60;2.60;;;;;;;4.52;69.16;99917.04;110321;1269;22265;-56
2023/04/26 00:51:25;;;;;;;14.40;2.00;;;;;;;4.52;69.16;99914.58;110415;1271;23068;-58
2023/04/26 00:53:57;;;;;;;12.50;2.00;;;;;;;4.51;69.19;99916.17;110395;1269;22162;-59
2023/04/26 00:56:28;;;;;;;13.30;1.70;;;;;;;4.51;69.21;99918.08;110391;1272;22253;-58
2023/04/26 00:58:59;;;;;;;17.80;2.30;;;;;;;4.51;69.28;99924.89;110434;1265;22239;-57
2023/04/26 01:01:31;;;;;;;9.10;1.50;;;;;;;4.49;69.32;99929.39;110421;1265;22234;-59
2023/04/26 01:04:02;;;;;;;13.60;2.60;;;;;;;4.46;69.40;99925.13;110443;1262;22150;-59
2023/04/26 01:06:37;;;;;;;11.80;2.10;;;;;;;4.45;69.44;99924.55;110415;1272;23061;-57
2023/04/26 01:09:10;;;;;;;19.40;3.00;;;;;;;4.42;69.46;99927.39;110408;1271;22407;-58
2023/04/26 01:11:42;;;;;;;15.50;2.10;;;;;;;4.39;69.52;99933.49;110397;1265;22161;-58
2023/04/26 01:14:14;;;;;;;15.00;2.60;;;;;;;4.36;69.64;99932.72;110419;1273;22153;-59
2023/04/26 01:16:46;;;;;;;11.80;2.20;;;;;;;4.34;69.81;99931.30;110459;1265;22384;-58
2023/04/26 01:19:17;;;;;;;19.40;2.50;;;;;;;4.29;69.79;99931.98;110429;1275;22210;-58
2023/04/26 01:21:48;;;;;;;15.30;2.20;;;;;;;4.27;69.82;99933.27;110428;1269;22392;-59
2023/04/26 01:24:19;;;;;;;13.60;2.00;;;;;;;4.25;69.84;99932.45;110428;1272;23112;-59
2023/04/26 01:26:50;;;;;;;16.90;2.30;;;;;;;4.23;70.03;99937.27;110401;1269;22150;-57
2023/04/26 01:29:23;;;;;;;10.00;1.70;;;;;;;4.19;70.06;99949.43;110405;1272;22224;-59
2023/04/26 01:31:53;;;;;;;15.40;1.90;;;;;;;4.16;70.17;99948.92;110390;1273;22175;-56
2023/04/26 01:34:24;;;;;;;14.90;2.20;;;;;;;4.14;70.27;99947.48;110409;1265;22237;-55
2023/04/26 01:36:56;;;;;;;19.40;2.40;;;;;;;4.13;70.32;99946.42;110338;1269;22206;-59
2023/04/26 01:39:27;;;;;;;14.30;2.00;;;;;;;4.10;70.39;99952.09;110426;1276;22198;-59
2023/04/26 01:41:58;;;;;;;14.70;2.70;;;;;;;4.07;70.48;99951.17;110389;1265;22854;-57
2023/04/26 01:44:29;;;;;;;10.50;2.30;;;;;;;4.03;70.65;99953.17;110431;1276;23422;-57
2023/04/26 01:47:00;;;;;;;14.20;2.50;;;;;;;4.00;70.77;99947.98;110404;1262;22155;-56
2023/04/26 01:49:32;;;;;;;19.10;2.40;;;;;;;3.97;70.85;99951.88;110392;1270;22451;-59
2023/04/26 01:52:03;;;;;;;17.10;3.00;;;;;;;3.94;71.00;99950.78;110404;1269;22363;-56
2023/04/26 01:54:34;;;;;;;11.70;1.80;;;;;;;3.91;71.00;99954.83;110424;1276;22197;-56
2023/04/26 01:57:05;;;;;;;10.10;2.30;;;;;;;3.87;71.06;99955.41;110400;1262;22162;-57
2023/04/26 01:59:35;;;;;;;10.90;1.80;;;;;;;3.84;71.23;99953.05;110362;1271;22247;-58
2023/04/26 02:02:06;;;;;;;14.10;1.90;;;;;;;3.82;71.30;99956.28;110393;1273;22201;-58
2023/04/26 02:04:37;;;;;;;18.80;2.40;;;;;;;3.81;71.31;99959.64;110430;1272;22374;-59
2023/04/26 02:07:08;;;;;;;11.40;1.80;;;;;;;3.79;71.36;99959.13;110402;1269;23123;-57
2023/04/26 02:09:39;;;;;;;10.30;1.60;;;;;;;3.77;71.38;99960.54;110423;1276;23214;-59
2023/04/26 02:12:10;;;;;;;10.00;2.20;;;;;;;3.76;71.40;99961.98;110452;1261;22197;-58
2023/04/26 02:14:41;;;;;;;10.70;1.60;;;;;;;3.75;71.42;99959.88;110413;1269;22162;-58
2023/04/26 02:17:13;;;;;;;15.10;1.90;;;;;;;3.74;71.45;99960.48;110391;1270;23397;-59
2023/04/26 02:19:45;;;;;;;13.60;1.90;;;;;;;3.73;71.58;99959.71;110376;1272;22116;-57
2023/04/26 02:22:16;;;;;;;14.10;1.60;;;;;;;3.70;71.62;99961.37;110380;1274;22190;-58
2023/04/26 02:24:47;;;;;;;15.90;2.10;;;;;;;3.69;71.69;99958.74;110427;1269;22231;-58
2023/04/26 02:27:18;;;;;;;8.80;1.50;;;;;;;3.67;71.79;99956.48;110339;1276;22772;-56
2023/04/26 02:29:49;;;;;;;15.30;2.60;;;;;;;3.66;71.77;99957.77;110415;1270;23305;-57
2023/04/26 02:32:20;;;;;;;10.50;1.70;;;;;;;3.65;71.80;99957.11;110394;1270;23015;-59
2023/04/26 02:34:50;;;;;;;10.40;1.50;;;;;;;3.63;71.93;99961.04;110295;1272;22183;-58
2023/04/26 02:37:21;;;;;;;11.80;2.40;;;;;;;3.61;72.12;99960.77;110381;1263;22850;-59
2023/04/26 02:39:52;;;;;;;13.70;1.80;;;;;;;3.60;72.22;99962.04;110249;1269;23095;-57
2023/04/26 02:42:24;;;;;;;8.40;1.10;;;;;;;3.59;72.32;99962.48;110398;1276;22250;-57
2023/04/26 02:44:55;;;;;;;14.20;1.40;;;;;;;3.58;72.42;99961.70;110392;1270;22161;-58
2023/04/26 02:47:25;;;;;;;12.30;1.90;;;;;;;3.58;72.51;99961.49;110379;1270;22259;-58
2023/04/26 02:49:56;;;;;;;9.70;1.70;;;;;;;3.57;72.54;99960.33;110391;1272;22162;-58
2023/04/26 02:52:27;;;;;;;10.30;1.60;;;;;;;3.55;72.81;99955.02;110399;1269;22168;-57
2023/04/26 02:54:58;;;;;;;9.90;1.20;;;;;;;3.54;72.84;99960.58;109173;1270;25330;-56
2023/04/26 02:57:29;;;;;;;8.60;1.50;;;;;;;3.52;73.00;99962.67;106404;1276;22524;-56
2023/04/26 03:00:00;;;;;;;14.50;1.80;;;;;;;3.52;73.27;99962.54;106391;1267;22637;-56
2023/04/26 03:02:31;;;;;;;8.40;1.40;;;;;;;3.51;73.25;99965.95;110386;1273;22412;-57
2023/04/26 03:05:03;;;;;;;11.40;1.60;;;;;;;3.50;73.44;99968.73;110377;1269;22195;-57
2023/04/26 03:07:34;;;;;;;13.10;1.90;;;;;;;3.49;73.55;99964.43;110416;1264;23534;-56
2023/04/26 03:10:07;;;;;;;12.20;2.20;;;;;;;3.48;73.73;99965.73;110399;1263;22178;-57
2023/04/26 03:12:38;;;;;;;17.90;2.00;;;;;;;3.46;73.78;99971.29;110389;1276;22478;-57
2023/04/26 03:15:10;;;;;;;12.80;2.80;;;;;;;3.45;73.88;99971.58;110423;1275;22166;-59
2023/04/26 03:17:41;;;;;;;17.60;2.60;;;;;;;3.43;73.87;99975.34;110389;1272;22223;-58
2023/04/26 03:20:13;;;;;;;14.40;2.60;;;;;;;3.40;74.02;99980.85;110410;1265;22169;-59
2023/04/26 03:22:44;;;;;;;15.70;2.60;;;;;;;3.40;74.14;99991.11;110400;1272;22971;-59
2023/04/26 03:25:15;;;;;;;13.00;2.40;;;;;;;3.38;74.37;99989.98;110407;1270;22174;-60
2023/04/26 03:27:46;;;;;;;6.40;1.60;;;;;;;3.35;74.53;99988.64;110410;1264;22873;-59
2023/04/26 03:30:18;;;;;;;9.80;1.70;;;;;;;3.35;74.87;99990.06;110387;1276;22266;-59
2023/04/26 03:32:48;;;;;;;16.30;3.10;;;;;;;3.36;74.83;99987.28;110373;1273;22965;-59
2023/04/26 03:35:20;;;;;;;14.10;2.60;;;;;;;3.38;74.72;99988.57;110387;1272;22248;-59
2023/04/26 03:37:50;;;;;;;11.70;1.50;;;;;;;3.37;74.79;99991.83;110331;1262;22166;-58
2023/04/26 03:40:21;;;;;;;11.10;2.00;;;;;;;3.37;74.88;99993.70;110385;1273;22111;-59
2023/04/26 03:42:52;;;;;;;13.40;2.30;;;;;;;3.37;74.90;99995.45;110310;1271;22444;-59
2023/04/26 03:45:25;;;;;;;8.20;1.80;;;;;;;3.36;74.95;100001.09;110382;1276;22150;-60
2023/04/26 03:47:56;;;;;;;10.70;1.50;;;;;;;3.35;75.07;100001.81;110372;1269;22175;-59
2023/04/26 03:50:27;;;;;;;10.20;1.70;;;;;;;3.35;75.11;100003.86;110372;1269;22204;-59
2023/04/26 03:52:58;;;;;;;14.10;1.50;;;;;;;3.36;75.06;100007.52;110386;1265;22273;-59
2023/04/26 03:55:28;;;;;;;9.60;1.80;;;;;;;3.36;75.10;100006.42;110377;1263;22285;-59
2023/04/26 03:57:59;;;;;;;13.50;1.70;;;;;;;3.38;75.19;100006.84;110371;1270;22158;-58
2023/04/26 04:00:30;;;;;;;10.60;1.60;;;;;;;3.38;75.29;100009.13;110395;1270;22292;-59
2023/04/26 04:03:01;;;;;;;11.80;2.10;;;;;;;3.39;75.51;100009.50;110175;1270;22761;-59
2023/04/26 04:05:32;;;;;;;10.60;1.50;;;;;;;3.41;75.58;100012.52;106406;1275;22972;-58
2023/04/26 04:08:03;;;;;;;12.70;1.80;;;;;;;3.42;75.55;100018.63;106330;1273;26629;-57
2023/04/26 04:10:35;;;;;;;11.50;1.80;;;;;;;3.41;75.69;100016.14;106301;1276;22662;-57
2023/04/26 04:13:06;;;;;;;12.70;1.70;;;;;;;3.42;75.84;100019.73;110334;1269;23011;-62
2023/04/26 04:15:37;;;;;;;12.80;2.70;;;;;;;3.43;75.93;100020.73;110389;1262;23181;-58
2023/04/26 04:18:08;;;;;;;8.90;1.50;;;;;;;3.44;75.98;100022.91;110360;1269;22190;-59
2023/04/26 04:20:40;;;;;;;9.70;2.10;;;;;;;3.46;76.11;100029.48;110370;1270;22218;-60
2023/04/26 04:23:11;;;;;;;9.60;1.70;;;;;;;3.49;76.15;100028.06;110368;1270;22179;-60
2023/04/26 04:25:42;;;;;;;8.50;1.40;;;;;;;3.51;76.27;100031.77;110363;1270;22115;-60
2023/04/26 04:28:13;;;;;;;13.30;1.50;;;;;;;3.55;76.25;100032.17;110356;1262;22191;-60
2023/04/26 04:30:45;;;;;;;11.50;1.70;;;;;;;3.59;76.60;100040.72;110365;1263;22277;-58
2023/04/26 04:33:18;;;;;;;9.00;1.70;;;;;;;3.66;76.63;100044.55;110374;1276;22377;-58
2023/04/26 04:35:49;;;;;;;10.40;1.90;;;;;;;3.74;76.50;100047.71;110366;1270;22202;-60
2023/04/26 04:38:19;;;;;;;12.70;1.80;;;;;;;3.82;76.51;100048.66;110328;1264;22251;-67
2023/04/26 04:40:51;;;;;;;11.80;1.50;;;;;;;3.87;76.23;100049.99;110327;1263;22360;-60
2023/04/26 04:43:22;;;;;;;9.40;1.60;;;;;;;3.92;76.10;100051.44;110388;1270;22238;-60
2023/04/26 04:45:54;;;;;;;9.70;2.10;;;;;;;3.96;75.94;100057.73;110345;1270;22313;-59
2023/04/26 04:48:28;;;;;;;11.50;1.70;;;;;;;3.99;75.74;100058.81;110365;1270;22389;-59
2023/04/26 04:50:59;;;;;;;7.30;1.50;;;;;;;4.01;75.81;100065.45;110359;1270;23200;-59
2023/04/26 04:53:30;;;;;;;12.00;1.90;;;;;;;4.03;75.71;100068.32;110360;1270;22359;-60
2023/04/26 04:56:01;;;;;;;11.70;1.30;;;;;;;4.05;75.83;100068.43;110347;1270;22327;-59
2023/04/26 04:58:33;;;;;;;7.60;1.10;;;;;;;4.07;75.85;100068.67;110337;1270;22405;-60
2023/04/26 05:01:04;;;;;;;7.10;1.10;;;;;;;4.11;75.76;100067.00;110307;1264;22354;-59
2023/04/26 05:03:35;;;;;;;7.20;1.40;;;;;;;4.13;75.64;100070.67;107284;1270;25551;-60
2023/04/26 05:06:07;;;;;;;14.70;1.90;;;;;;;4.12;75.52;100072.88;106343;1270;22961;-60
2023/04/26 05:08:38;;;;;;;8.20;1.10;;;;;;;4.10;75.55;100070.41;110375;1269;23400;-61
2023/04/26 05:11:09;;;;;;;8.90;1.30;;;;;;;4.09;75.63;100073.45;110349;1266;22104;-60
2023/04/26 05:13:40;;;;;;;7.30;1.40;;;;;;;4.09;75.71;100073.45;110355;1267;23038;-61
2023/04/26 05:16:11;;;;;;;7.70;1.00;;;;;;;4.12;75.75;100075.73;110356;1263;22797;-61
2023/04/26 05:18:41;;;;;;;8.40;1.30;;;;;;;4.17;75.87;100080.80;110348;1270;22222;-59
2023/04/26 05:21:12;;;;;;;9.10;1.30;;;;;;;4.22;75.85;100082.47;110320;1266;22241;-62
2023/04/26 05:23:43;;;;;;;10.00;1.10;;;;;;;4.29;76.06;100081.05;110302;1269;22228;-61
2023/04/26 05:26:15;;;;;;;9.30;1.10;;;;;;;4.38;76.02;100082.61;110263;1267;23333;-60
2023/04/26 05:28:46;;;;;;;8.10;0.70;;;;;;;4.44;75.88;100086.77;110349;1264;23391;-60
2023/04/26 05:31:17;;;;;;;14.00;1.20;;;;;;;4.51;75.63;100088.52;110321;1269;22213;-61
2023/04/26 05:33:48;;;;;;;6.40;1.20;;;;;;;4.58;75.42;100091.73;110344;1269;22375;-60
2023/04/26 05:36:20;;;;;;;6.40;1.20;;;;;;;4.63;75.10;100091.95;110361;1266;22362;-61
2023/04/26 05:38:51;;;;;;;11.40;1.00;;;;;;;4.67;75.20;100096.95;110312;1264;22237;-61
2023/04/26 05:41:22;;;;;;;5.50;0.70;;;;;;;4.72;74.92;100093.88;110314;1264;22193;-60
2023/04/26 05:43:53;;;;;;;11.10;1.30;;;;;;;4.76;74.84;100097.79;110325;1264;23305;-60
2023/04/26 05:46:24;;;;;;;9.80;1.10;;;;;;;4.79;74.73;100099.09;110295;1267;22143;-60
2023/04/26 05:48:55;;;;;;;9.30;1.30;;;;;;;4.84;74.67;100101.39;110359;1261;22146;-60
2023/04/26 05:51:26;;;;;;;8.30;1.10;;;;;;;4.88;74.78;100097.56;110319;1276;22289;-62
2023/04/26 05:53:57;;;;;;;7.20;0.90;;;;;;;4.94;74.53;100097.29;110347;1262;22200;-60
2023/04/26 05:56:28;;;;;;;12.00;1.10;;;;;;;4.99;73.99;100103.67;110323;1269;22173;-62
2023/04/26 05:58:59;;;;;;;9.60;0.80;;;;;;;5.00;74.24;100097.79;110337;1270;23210;-60
2023/04/26 06:01:30;;;;;;;7.00;0.70;;;;;;;5.06;74.03;100105.11;110316;1265;22269;-61
2023/04/26 06:04:00;;;;;;;7.10;0.60;;;;;;;5.11;73.87;100106.76;110324;1269;22413;-61
2023/04/26 06:06:31;;;;;;;4.30;0.60;;;;;;;5.17;73.99;100111.48;110331;1276;23180;-60
2023/04/26 06:09:03;;;;;;;11.90;1.20;;;;;;;5.23;73.40;100116.33;110336;1270;22259;-61
2023/04/26 06:11:34;;;;;;;9.40;1.00;;;;;;;5.26;72.98;100114.33;110319;1262;22175;-61
2023/04/26 06:14:04;;;;;;;7.70;0.90;;;;;;;5.28;73.08;100115.06;110333;1269;22154;-60
2023/04/26 06:16:35;;;;;;;11.10;0.90;;;;;;;5.33;72.80;100116.48;110339;1265;23336;-60
2023/04/26 06:19:06;;;;;;;11.60;0.80;;;;;;;5.35;72.64;100122.09;110331;1262;22327;-58
2023/04/26 06:21:37;;;;;;;13.20;1.00;;;;;;;5.35;72.00;100121.38;110318;1270;22178;-61
2023/04/26 06:24:09;;;;;;;11.80;1.30;;;;;;;5.38;72.39;100123.02;110351;1269;23374;-59
2023/04/26 06:26:40;;;;;;;6.90;0.60;;;;;;;5.46;72.51;100120.14;110345;1262;22429;-59
2023/04/26 06:29:11;;;;;;;5.50;1.00;;;;;;;5.52;71.81;100124.58;110338;1265;22865;-61
2023/04/26 06:31:41;;;;;;;11.90;0.80;;;;;;;5.59;71.56;100126.95;110337;1265;22160;-61
2023/04/26 06:34:12;;;;;;;4.80;0.50;;;;;;;5.65;70.90;100123.28;110355;1269;22209;-61
2023/04/26 06:36:43;;;;;;;8.40;0.80;;;;;;;5.63;70.68;100127.22;107969;1270;22537;-60
2023/04/26 06:39:14;;;;;;;6.60;0.70;;;;;;;5.66;71.55;100124.98;106498;1276;24269;-60
2023/04/26 06:41:45;;;;;;;7.10;0.70;;;;;;;5.76;71.12;100128.27;106479;1273;25667;-60
2023/04/26 06:44:16;;;;;;;10.10;0.70;;;;;;;5.85;70.44;100130.68;106366;1272;23002;-60
2023/04/26 06:46:48;;;;;;;8.90;0.70;;;;;;;5.90;70.25;100125.61;106269;1262;22679;-60
2023/04/26 06:49:19;;;;;;;10.60;0.70;;;;;;;5.94;69.84;100131.10;106324;1269;22531;-59
2023/04/26 06:51:51;;;;;;;6.90;0.80;;;;;;;5.97;69.77;100126.23;110243;1264;22402;-61
2023/04/26 06:54:27;;;;;;;7.60;0.80;;;;;;;6.04;69.76;100133.16;110365;1276;22158;-61
2023/04/26 06:56:58;;;;;;;14.60;1.00;;;;;;;6.07;69.39;100132.42;110343;1269;22200;-60
2023/04/26 06:59:29;;;;;;;8.30;0.80;;;;;;;6.08;69.06;100128.34;110347;1265;23120;-61
2023/04/26 07:02:01;;;;;;;12.70;0.80;;;;;;;6.12;68.54;100135.82;110368;1269;22971;-62
2023/04/26 07:04:32;;;;;;;6.00;1.00;;;;;;;6.15;68.02;100133.24;110367;1270;22395;-61
2023/04/26 07:07:02;;;;;;;9.60;1.10;;;;;;;6.19;68.31;100131.29;110364;1261;22221;-61
2023/04/26 07:09:34;;;;;;;8.00;0.90;;;;;;;6.25;68.38;100136.73;110332;1276;22165;-61
2023/04/26 07:12:05;;;;;;;12.80;0.80;;;;;;;6.35;68.13;100133.14;110342;1270;22246;-61
2023/04/26 07:14:39;;;;;;;9.20;0.70;;;;;;;6.46;67.07;100135.55;110350;1269;22136;-61
2023/04/26 07:17:10;;;;;;;2.70;0.40;;;;;;;6.51;65.17;100134.12;110325;1265;22167;-62
2023/04/26 07:19:41;;;;;;;6.50;0.80;;;;;;;6.41;64.72;100132.48;110285;1269;22278;-60
2023/04/26 07:22:12;;;;;;;5.40;0.50;;;;;;;6.39;66.21;100127.67;110295;1269;23069;-59
2023/04/26 07:24:43;;;;;;;8.80;0.80;;;;;;;6.50;66.78;100126.23;110330;1261;23133;-62
2023/04/26 07:27:14;;;;;;;7.90;0.90;;;;;;;6.60;66.86;100128.13;110312;1276;22410;-61
2023/04/26 07:29:45;;;;;;;9.50;0.80;;;;;;;6.64;65.85;100133.52;110328;1262;22324;-61
2023/04/26 07:32:16;;;;;;;8.40;0.80;;;;;;;6.64;65.46;100136.48;110343;1269;22193;-60
2023/04/26 07:34:47;;;;;;;9.60;0.60;;;;;;;6.63;65.03;100136.84;108470;1270;22530;-61
2023/04/26 07:37:18;;;;;;;4.70;0.60;;;;;;;6.64;65.29;100143.74;106394;1276;22641;-59
2023/04/26 07:39:49;;;;;;;6.70;0.40;;;;;;;6.67;63.42;100145.40;106402;1262;22647;-60
2023/04/26 07:42:20;;;;;;;5.70;0.60;;;;;;;6.70;63.73;100145.90;106320;1269;25327;-60
2023/04/26 07:44:51;;;;;;;6.10;0.80;;;;;;;6.74;63.06;100142.20;106385;1269;22702;-61
2023/04/26 07:47:22;;;;;;;6.70;0.50;;;;;;;6.80;63.78;100139.66;106333;1274;25414;-61
2023/04/26 07:49:55;;;;;;;6.00;1.20;;;;;;;6.87;64.18;100145.34;106306;1269;22528;-60
2023/04/26 07:52:26;;;;;;;7.70;0.80;;;;;;;6.86;61.48;100151.25;106339;1263;25476;-60
2023/04/26 07:54:57;;;;;;;6.20;0.40;;;;;;;6.77;60.53;100149.81;106377;1269;24383;-61
2023/04/26 07:57:28;;;;;;;5.90;0.50;;;;;;;6.70;60.66;100152.23;110330;1273;23022;-61
2023/04/26 07:59:59;;;;;;;5.30;0.40;;;;;;;6.65;59.44;100150.85;110348;1270;22288;-62
2023/04/26 08:02:30;;;;;;;5.30;0.40;;;;;;;6.69;61.60;100146.11;110323;1262;23692;-60
2023/04/26 08:05:01;;;;;;;6.30;0.40;;;;;;;6.80;62.27;100144.77;110355;1270;22180;-60
2023/04/26 08:07:32;;;;;;;7.60;0.50;;;;;;;6.93;60.68;100150.23;110323;1265;22349;-60
2023/04/26 08:10:03;;;;;;;13.70;0.50;;;;;;;7.05;58.65;100156.23;110340;1269;22191;-61
2023/04/26 08:12:35;;;;;;;7.70;0.90;;;;;;;7.17;58.37;100149.03;110348;1276;22262;-60
2023/04/26 08:15:07;;;;;;;4.50;0.40;;;;;;;7.32;59.81;100142.06;110341;1269;22184;-61
2023/04/26 08:17:38;;;;;;;8.30;0.80;;;;;;;7.46;58.02;100146.47;110294;1270;22247;-62
2023/04/26 08:20:10;;;;;;;6.50;0.50;;;;;;;7.43;58.25;100154.80;110302;1265;22363;-60
2023/04/26 08:22:41;;;;;;;7.50;0.50;;;;;;;7.41;58.33;100154.40;110330;1265;22142;-59
2023/04/26 08:25:12;;;;;;;7.50;0.60;;;;;;;7.42;58.66;100153.79;110334;1268;23085;-60
2023/04/26 08:27:43;;;;;;;3.40;0.40;;;;;;;7.43;56.92;100162.80;110306;1269;22162;-60
2023/04/26 08:30:15;;;;;;;4.50;0.40;;;;;;;7.41;56.42;100156.71;110310;1276;22969;-60
2023/04/26 08:32:45;;;;;;;4.30;0.50;;;;;;;7.39;56.87;100163.31;110329;1265;22176;-58
2023/04/26 08:35:16;;;;;;;10.10;0.60;;;;;;;7.51;56.51;100165.18;110327;1265;22237;-60
2023/04/26 08:37:47;;;;;;;3.10;0.60;;;;;;;7.63;56.09;100161.90;110316;1270;22163;-60
2023/04/26 08:40:24;;;;;;;7.70;0.60;;;;;;;7.67;56.04;100166.73;110367;1262;22394;-59
2023/04/26 08:42:55;;;;;;;3.00;0.50;;;;;;;7.65;55.37;100169.20;110319;1269;22342;-60
2023/04/26 08:45:26;;;;;;;5.30;0.50;;;;;;;7.52;55.78;100169.11;110338;1276;22206;-59
2023/04/26 08:48:03;;;;;;;6.10;0.60;;;;;;;7.42;55.67;100172.52;110322;1262;22203;-59
2023/04/26 08:50:36;;;;;;;7.40;1.10;;;;;;;7.32;56.54;100162.37;110327;1269;22158;-60
2023/04/26 08:53:08;;;;;;;8.20;0.50;;;;;;;7.35;55.75;100167.90;110342;1265;22153;-59
2023/04/26 08:55:39;;;;;;;6.40;0.40;;;;;;;7.42;55.52;100165.70;110342;1262;22181;-60
2023/04/26 08:58:11;;;;;;;9.70;0.60;;;;;;;7.57;56.60;100159.83;110293;1269;22267;-60
2023/04/26 09:00:45;;;;;;;8.70;0.70;;;;;;;7.78;56.50;100157.91;110378;1276;22151;-60
2023/04/26 09:03:16;;;;;;;5.00;0.40;;;;;;;7.91;55.74;100168.20;110319;1269;22333;-60
2023/04/26 09:05:47;;;;;;;13.50;0.50;;;;;;;7.90;55.28;100165.73;110357;1265;22947;-60
2023/04/26 09:08:19;;;;;;;7.20;0.50;;;;;;;7.88;55.08;100163.00;110273;1265;22340;-60
2023/04/26 09:10:50;;;;;;;4.60;0.40;;;;;;;7.91;54.83;100161.69;110309;1269;22668;-60
2023/04/26 09:13:27;;;;;;;8.00;0.60;;;;;;;7.97;54.87;100155.27;110366;1270;22195;-59
2023/04/26 09:15:58;;;;;;;8.60;0.50;;;;;;;8.02;55.16;100158.91;110333;1268;22188;-60
2023/04/26 09:18:30;;;;;;;4.20;0.50;;;;;;;8.05;54.89;100165.20;110305;1269;22222;-60
2023/04/26 09:21:08;;;;;;;3.50;0.30;;;;;;;8.04;54.41;100171.79;110324;1276;22178;-60
2023/04/26 09:24:03;;;;;;;2.00;0.40;;;;;;;7.99;54.70;100164.14;110306;1268;22186;-60
2023/04/26 09:26:34;;;;;;;5.60;0.50;;;;;;;8.02;54.67;100162.03;110354;1262;23073;-60
2023/04/26 09:29:15;;;;;;;9.50;0.70;;;;;;;8.15;55.58;100161.19;110342;1271;22220;-60
2023/04/26 09:31:48;;;;;;;7.40;0.50;;;;;;;8.39;55.75;100162.73;110347;1273;22348;-60
2023/04/26 09:34:19;;;;;;;4.90;0.40;;;;;;;8.50;53.69;100158.95;110324;1270;23260;-59
2023/04/26 09:36:51;;;;;;;7.20;0.60;;;;;;;8.48;54.60;100167.09;110321;1261;22259;-60
2023/04/26 09:39:38;;;;;;;7.20;0.50;;;;;;;8.39;54.97;100176.21;110352;1276;22203;-60
2023/04/26 09:42:10;;;;;;;7.70;0.50;;;;;;;8.24;55.04;100178.22;110331;1273;22269;-60
2023/04/26 09:44:41;;;;;;;6.20;0.40;;;;;;;8.19;55.19;100171.98;110305;1271;23066;-59
2023/04/26 09:47:13;;;;;;;4.30;0.30;;;;;;;8.24;55.35;100166.30;110369;1270;22161;-60
2023/04/26 09:49:49;;;;;;;5.60;0.50;;;;;;;8.37;55.32;100157.61;110336;1262;22206;-60
2023/04/26 09:52:20;;;;;;;2.80;0.40;;;;;;;8.58;54.60;100156.29;110374;1269;22350;-60
2023/04/26 09:54:52;;;;;;;6.00;0.40;;;;;;;8.78;54.82;100155.36;110329;1262;22276;-59
2023/04/26 09:57:24;;;;;;;5.80;0.50;;;;;;;8.90;54.04;100161.19;110292;1273;22225;-59
2023/04/26 09:59:55;;;;;;;5.30;0.50;;;;;;;8.86;53.04;100164.83;110329;1270;22257;-60
2023/04/26 10:02:28;;;;;;;3.90;0.30;;;;;;;8.78;52.20;100167.26;110370;1270;23079;-60
2023/04/26 10:05:00;;;;;;;6.50;0.60;;;;;;;8.70;51.14;100159.27;110345;1269;22206;-59
2023/04/26 10:07:32;;;;;;;4.70;0.50;;;;;;;8.69;52.00;100158.39;110237;1265;22486;-60
2023/04/26 10:10:03;;;;;;;5.70;0.40;;;;;;;8.75;51.89;100151.49;110357;1269;22285;-59
2023/04/26 10:12:35;;;;;;;6.00;0.60;;;;;;;8.90;52.37;100153.80;110346;1269;22350;-60
2023/04/26 10:15:09;;;;;;;3.60;0.30;;;;;;;9.03;52.38;100154.50;110351;1270;22173;-60
2023/04/26 10:17:41;;;;;;;7.50;0.40;;;;;;;9.03;53.08;100155.98;110345;1270;22173;-60
2023/04/26 10:20:14;;;;;;;7.00;0.50;;;;;;;9.05;52.76;100160.77;110335;1265;22962;-60
2023/04/26 10:22:51;;;;;;;8.70;0.60;;;;;;;9.05;52.39;100159.62;110366;1273;22226;-60
2023/04/26 10:25:34;;;;;;;3.90;0.80;;;;;;;9.05;51.66;100167.41;110273;1262;22175;-60
2023/04/26 10:28:05;;;;;;;5.20;0.50;;;;;;;8.96;50.73;100165.98;110330;1269;22208;-60
2023/04/26 10:30:57;;;;;;;8.40;0.70;;;;;;;8.87;51.70;100173.77;110350;1265;22211;-60
2023/04/26 10:33:28;;;;;;;7.30;0.60;;;;;;;8.84;52.25;100170.96;110357;1274;22231;-60
2023/04/26 10:36:13;;;;;;;7.60;0.50;;;;;;;8.79;52.28;100172.08;110356;1273;22279;-60
2023/04/26 10:39:26;;;;;;;3.40;0.30;;;;;;;8.72;52.77;100183.11;110337;1262;22156;-60
2023/04/26 10:42:22;;;;;;;4.30;0.60;;;;;;;8.53;53.48;100181.70;110281;1271;22191;-60
2023/04/26 10:44:53;;;;;;;5.00;0.50;;;;;;;8.40;54.16;100173.38;110322;1269;22191;-60
2023/04/26 10:47:33;;;;;;;5.60;0.40;;;;;;;8.42;53.30;100169.88;110321;1269;22220;-60
2023/04/26 10:50:09;;;;;;;5.90;0.50;;;;;;;8.49;52.67;100169.35;110349;1270;22331;-60
2023/04/26 10:52:59;;;;;;;3.30;0.40;;;;;;;8.52;52.71;100169.48;110360;1270;22324;-59
2023/04/26 10:55:42;;;;;;;8.70;0.60;;;;;;;8.52;52.22;100169.05;110363;1271;22851;-60
2023/04/26 10:58:34;;;;;;;4.90;0.80;;;;;;;8.49;52.70;100175.86;110277;1265;22916;-60
2023/04/26 11:01:10;;;;;;;3.10;0.60;;;;;;;8.45;52.97;100178.75;110329;1262;22201;-60
2023/04/26 11:03:44;;;;;;;7.60;0.60;;;;;;;8.43;52.90;100177.23;110368;1276;22306;-59
2023/04/26 11:06:16;;;;;;;7.70;0.90;;;;;;;8.43;52.70;100176.98;110350;1276;22066;-60
2023/04/26 11:08:49;;;;;;;2.30;0.50;;;;;;;8.48;52.89;100166.84;110344;1269;22290;-59
2023/04/26 11:11:25;;;;;;;3.80;0.60;;;;;;;8.64;51.97;100170.20;110303;1270;22317;-60
2023/04/26 11:14:16;;;;;;;3.80;0.70;;;;;;;8.70;51.21;100177.83;110067;1265;22537;-59
2023/04/26 11:17:00;;;;;;;4.50;0.50;;;;;;;8.63;50.94;100179.73;110309;1271;23309;-61
2023/04/26 11:19:35;;;;;;;4.40;0.50;;;;;;;8.61;51.00;100187.71;110229;1265;23096;-60
2023/04/26 11:22:08;;;;;;;4.90;0.80;;;;;;;8.53;50.60;100180.06;110352;1261;22198;-59
2023/04/26 11:24:40;;;;;;;4.70;0.30;;;;;;;8.45;50.12;100184.00;106285;1269;5403686;-60
2023/04/26 11:27:11;;;;;;;6.20;0.50;;;;;;;8.41;50.68;100175.57;110385;1276;22346;-59
2023/04/26 11:29:42;;;;;;;5.80;0.70;;;;;;;8.45;50.74;100176.52;110355;1270;22335;-59
2023/04/26 11:32:13;;;;;;;3.70;0.40;;;;;;;8.49;50.92;100174.98;110350;1273;23076;-59
2023/04/26 11:34:46;;;;;;;6.20;0.50;;;;;;;8.53;51.30;100175.91;110339;1270;22314;-60
2023/04/26 11:37:17;;;;;;;4.70;0.80;;;;;;;8.57;51.29;100177.61;110345;1274;22231;-59
2023/04/26 11:39:50;;;;;;;1.40;0.40;;;;;;;8.59;50.67;100177.20;110340;1269;23241;-59
2023/04/26 11:42:26;;;;;;;4.20;0.40;;;;;;;8.60;50.28;100173.98;110346;1276;22211;-60
2023/04/26 11:45:00;;;;;;;7.30;0.60;;;;;;;8.67;51.28;100172.89;110308;1274;22174;-59
2023/04/26 11:47:32;;;;;;;7.40;0.50;;;;;;;8.84;50.55;100175.31;110375;1269;22303;-60